createdAt,value
2017-09-16T00:00:25.000Z,1.3
2017-09-16T00:01:27.440Z,1.4
2017-09-16T00:02:29.886Z,1.4
2017-09-16T00:03:32.329Z,1.3
2017-09-16T00:04:34.775Z,1.3
2017-09-16T00:05:37.213Z,1.3
2017-09-16T00:06:39.652Z,1.4
2017-09-16T00:07:42.103Z,1.4
2017-09-16T00:08:44.542Z,1.4
2017-09-16T00:09:46.988Z,1.4
2017-09-16T00:11:21.502Z,1.3
2017-09-16T00:12:23.893Z,1.4
2017-09-16T00:13:26.284Z,1.3
2017-09-16T00:14:28.676Z,1.3
2017-09-16T00:15:31.060Z,1.4
2017-09-16T00:16:33.444Z,1.4
2017-09-16T00:17:35.844Z,1.3
2017-09-16T00:18:38.231Z,1.4
2017-09-16T00:19:40.620Z,1.4
2017-09-16T00:20:43.006Z,1.4
2017-09-16T00:21:45.392Z,1.3
2017-09-16T00:22:47.784Z,1.3
2017-09-16T00:23:50.172Z,1.3
2017-09-16T00:24:52.554Z,1.3
2017-09-16T00:25:55.293Z,1.3
2017-09-16T00:26:57.680Z,1.3
2017-09-16T00:28:00.074Z,1.3
2017-09-16T00:29:02.512Z,1.3
2017-09-16T00:30:04.910Z,1.3
2017-09-16T00:31:07.290Z,1.3
2017-09-16T00:32:10.053Z,1.3
2017-09-16T00:33:12.780Z,1.4
2017-09-16T00:34:15.164Z,1.3
2017-09-16T00:35:17.551Z,1.3
2017-09-16T00:36:19.938Z,1.4
2017-09-16T00:37:22.328Z,1.3
2017-09-16T00:38:24.715Z,1.3
2017-09-16T00:39:27.107Z,1.3
2017-09-16T00:40:29.832Z,1.3
2017-09-16T00:41:32.210Z,1.3
2017-09-16T00:42:34.602Z,1.3
2017-09-16T00:43:36.992Z,1.3
2017-09-16T00:44:39.379Z,1.3
2017-09-16T00:45:41.766Z,1.3
2017-09-16T00:46:44.155Z,1.3
2017-09-16T00:47:46.537Z,1.3
2017-09-16T00:48:48.934Z,1.4
2017-09-16T00:49:51.318Z,1.3
2017-09-16T00:50:53.702Z,1.4
2017-09-16T00:51:56.088Z,1.3
2017-09-16T00:52:58.485Z,1.3
2017-09-16T00:54:00.874Z,1.3
2017-09-16T00:55:03.265Z,1.3
2017-09-16T00:56:05.643Z,1.3
2017-09-16T00:57:08.377Z,1.4
2017-09-16T00:58:10.765Z,1.3
2017-09-16T00:59:13.490Z,1.3
2017-09-16T01:00:16.213Z,1.3
2017-09-16T01:01:18.599Z,1.3
2017-09-16T01:02:21.338Z,1.3
2017-09-16T01:03:23.734Z,1.3
2017-09-16T01:04:26.125Z,1.3
2017-09-16T01:05:28.507Z,1.3
2017-09-16T01:06:30.893Z,1.3
2017-09-16T01:07:33.287Z,1.3
2017-09-16T01:08:36.004Z,1.3
2017-09-16T01:09:38.727Z,1.3
2017-09-16T01:10:41.114Z,1.3
2017-09-16T01:11:43.499Z,1.3
2017-09-16T01:12:45.906Z,1.3
2017-09-16T01:13:48.298Z,1.3
2017-09-16T01:14:50.679Z,1.3
2017-09-16T01:15:53.417Z,1.3
2017-09-16T01:16:55.812Z,1.3
2017-09-16T01:17:58.200Z,1.3
2017-09-16T01:19:00.593Z,1.3
2017-09-16T01:20:03.330Z,1.3
2017-09-16T01:21:05.719Z,1.3
2017-09-16T01:22:08.117Z,1.3
2017-09-16T01:23:10.497Z,1.3
2017-09-16T01:24:12.885Z,1.3
2017-09-16T01:25:15.274Z,1.4
2017-09-16T01:26:17.997Z,1.3
2017-09-16T01:27:20.392Z,1.3
2017-09-16T01:28:22.783Z,1.3
2017-09-16T01:29:25.161Z,1.3
2017-09-16T01:30:27.907Z,1.3
2017-09-16T01:31:30.300Z,1.3
2017-09-16T01:32:32.691Z,1.3
2017-09-16T01:33:35.074Z,1.3
2017-09-16T01:34:37.465Z,1.3
2017-09-16T01:35:39.856Z,1.3
2017-09-16T01:36:42.240Z,1.3
2017-09-16T01:37:44.628Z,1.3
2017-09-16T01:38:47.019Z,1.3
2017-09-16T01:39:49.411Z,1.3
2017-09-16T01:40:51.796Z,1.4
2017-09-16T01:41:54.186Z,1.3
2017-09-16T01:42:56.577Z,1.3
2017-09-16T01:43:58.966Z,1.3
2017-09-16T01:45:01.354Z,1.3
2017-09-16T01:46:03.745Z,1.3
2017-09-16T01:47:06.128Z,1.3
2017-09-16T01:48:08.523Z,1.3
2017-09-16T01:49:11.035Z,1.3
2017-09-16T01:50:13.421Z,1.3
2017-09-16T01:51:15.811Z,1.3
2017-09-16T01:52:18.537Z,1.3
2017-09-16T01:53:21.266Z,1.3
2017-09-16T01:54:23.996Z,1.3
2017-09-16T01:55:26.718Z,1.3
2017-09-16T01:56:29.114Z,1.3
2017-09-16T01:57:31.496Z,1.3
2017-09-16T01:58:33.885Z,1.3
2017-09-16T01:59:36.273Z,1.3
2017-09-16T02:00:38.664Z,1.4
2017-09-16T02:01:41.049Z,1.3
2017-09-16T02:02:43.441Z,1.3
2017-09-16T02:03:45.822Z,1.3
2017-09-16T02:04:48.214Z,1.3
2017-09-16T02:05:50.942Z,1.3
2017-09-16T02:06:53.334Z,1.3
2017-09-16T02:07:55.721Z,1.3
2017-09-16T02:08:58.459Z,1.3
2017-09-16T02:10:00.849Z,1.3
2017-09-16T02:11:03.237Z,1.3
2017-09-16T02:12:05.977Z,1.3
2017-09-16T02:13:08.363Z,1.3
2017-09-16T02:14:10.750Z,1.3
2017-09-16T02:15:13.133Z,1.3
2017-09-16T02:16:15.516Z,1.3
2017-09-16T02:17:17.904Z,1.3
2017-09-16T02:18:20.289Z,1.3
2017-09-16T02:19:22.676Z,1.4
2017-09-16T02:20:25.065Z,1.3
2017-09-16T02:21:27.448Z,1.3
2017-09-16T02:22:29.833Z,1.4
2017-09-16T02:23:32.223Z,1.3
2017-09-16T02:24:34.603Z,1.4
2017-09-16T02:25:36.991Z,1.3
2017-09-16T02:26:39.378Z,1.3
2017-09-16T02:27:41.763Z,1.3
2017-09-16T02:28:44.155Z,1.3
2017-09-16T02:29:46.540Z,1.3
2017-09-16T02:30:48.930Z,1.3
2017-09-16T02:31:51.317Z,1.3
2017-09-16T02:32:53.700Z,1.3
2017-09-16T02:33:56.087Z,1.3
2017-09-16T02:34:58.475Z,1.3
2017-09-16T02:36:00.862Z,1.3
2017-09-16T02:37:03.256Z,1.4
2017-09-16T02:38:05.636Z,1.3
2017-09-16T02:39:08.027Z,1.3
2017-09-16T02:40:10.421Z,1.3
2017-09-16T02:41:13.156Z,1.3
2017-09-16T02:42:15.878Z,1.3
2017-09-16T02:43:18.261Z,1.3
2017-09-16T02:44:20.641Z,1.3
2017-09-16T02:45:23.033Z,1.3
2017-09-16T02:46:25.760Z,1.4
2017-09-16T02:47:28.144Z,1.3
2017-09-16T02:48:30.532Z,1.3
2017-09-16T02:49:32.922Z,1.3
2017-09-16T02:50:35.313Z,1.3
2017-09-16T02:51:37.700Z,1.4
2017-09-16T02:52:40.080Z,1.3
2017-09-16T02:53:42.467Z,1.4
2017-09-16T02:54:44.861Z,1.3
2017-09-16T02:55:47.254Z,1.3
2017-09-16T02:56:49.643Z,1.3
2017-09-16T02:57:52.031Z,1.3
2017-09-16T02:58:54.413Z,1.3
2017-09-16T02:59:56.818Z,1.3
2017-09-16T03:00:59.193Z,1.3
2017-09-16T03:02:01.579Z,1.3
2017-09-16T03:03:03.965Z,1.4
2017-09-16T03:04:06.702Z,1.3
2017-09-16T03:05:09.082Z,1.3
2017-09-16T03:06:11.468Z,1.3
2017-09-16T03:07:13.859Z,1.3
2017-09-16T03:08:16.590Z,1.3
2017-09-16T03:09:18.978Z,1.3
2017-09-16T03:10:21.371Z,1.3
2017-09-16T03:11:23.752Z,1.3
2017-09-16T03:12:26.141Z,1.3
2017-09-16T03:13:28.533Z,1.3
2017-09-16T03:14:30.919Z,1.3
2017-09-16T03:15:33.305Z,1.4
2017-09-16T03:16:36.041Z,1.3
2017-09-16T03:17:38.420Z,1.4
2017-09-16T03:18:40.810Z,1.3
2017-09-16T03:19:43.531Z,1.3
2017-09-16T03:20:45.918Z,1.3
2017-09-16T03:21:48.303Z,1.4
2017-09-16T03:22:50.692Z,1.3
2017-09-16T03:23:53.077Z,1.3
2017-09-16T03:24:55.475Z,1.3
2017-09-16T03:25:57.856Z,1.3
2017-09-16T03:27:00.250Z,1.3
2017-09-16T03:28:02.643Z,1.3
2017-09-16T03:29:05.028Z,1.3
2017-09-16T03:30:08.098Z,1.3
2017-09-16T03:31:10.828Z,1.3
2017-09-16T03:32:13.211Z,1.3
2017-09-16T03:33:15.599Z,1.3
2017-09-16T03:34:17.980Z,1.3
2017-09-16T03:35:20.376Z,1.3
2017-09-16T03:36:22.764Z,1.3
2017-09-16T03:37:25.143Z,1.3
2017-09-16T03:38:27.533Z,1.3
2017-09-16T03:39:29.920Z,1.3
2017-09-16T03:40:32.645Z,1.3
2017-09-16T03:41:35.033Z,1.3
2017-09-16T03:42:37.418Z,1.4
2017-09-16T03:43:39.804Z,1.3
2017-09-16T03:44:42.199Z,1.3
2017-09-16T03:45:44.587Z,1.3
2017-09-16T03:46:46.973Z,1.3
2017-09-16T03:47:49.358Z,1.3
2017-09-16T03:48:51.768Z,1.3
2017-09-16T03:49:54.161Z,1.3
2017-09-16T03:50:56.548Z,1.3
2017-09-16T03:51:58.926Z,1.3
2017-09-16T03:53:01.312Z,1.3
2017-09-16T03:54:04.057Z,1.3
2017-09-16T03:55:06.441Z,1.3
2017-09-16T03:56:08.828Z,1.3
2017-09-16T03:57:11.213Z,1.3
2017-09-16T03:58:13.595Z,1.3
2017-09-16T03:59:15.992Z,1.3
2017-09-16T04:00:18.373Z,1.3
2017-09-16T04:01:20.759Z,1.3
2017-09-16T04:02:23.148Z,1.3
2017-09-16T04:03:25.535Z,1.3
2017-09-16T04:04:27.928Z,1.3
2017-09-16T04:05:30.312Z,1.3
2017-09-16T04:06:32.699Z,1.3
2017-09-16T04:07:35.090Z,1.3
2017-09-16T04:08:37.523Z,1.3
2017-09-16T04:09:39.914Z,1.3
2017-09-16T04:10:42.299Z,1.3
2017-09-16T04:11:45.032Z,1.3
2017-09-16T04:12:47.421Z,1.3
2017-09-16T04:13:49.810Z,1.3
2017-09-16T04:14:52.194Z,1.3
2017-09-16T04:15:54.599Z,1.3
2017-09-16T04:16:56.987Z,1.3
2017-09-16T04:17:59.372Z,1.3
2017-09-16T04:19:01.755Z,1.4
2017-09-16T04:20:04.142Z,1.3
2017-09-16T04:21:06.530Z,1.3
2017-09-16T04:22:08.920Z,1.3
2017-09-16T04:23:11.298Z,1.3
2017-09-16T04:24:14.028Z,1.3
2017-09-16T04:25:16.762Z,1.3
2017-09-16T04:26:19.154Z,1.3
2017-09-16T04:27:21.549Z,1.3
2017-09-16T04:28:24.292Z,1.3
2017-09-16T04:29:27.075Z,1.3
2017-09-16T04:30:29.514Z,1.3
2017-09-16T04:31:31.944Z,1.3
2017-09-16T04:32:34.391Z,1.3
2017-09-16T04:33:36.835Z,1.3
2017-09-16T04:34:39.305Z,1.3
2017-09-16T04:35:41.753Z,1.3
2017-09-16T04:36:44.216Z,1.3
2017-09-16T04:37:46.661Z,1.3
2017-09-16T04:38:49.131Z,1.3
2017-09-16T04:39:51.575Z,1.3
2017-09-16T04:40:54.389Z,1.3
2017-09-16T04:41:57.185Z,1.3
2017-09-16T04:42:59.641Z,1.3
2017-09-16T04:44:02.081Z,1.3
2017-09-16T04:45:04.541Z,1.3
2017-09-16T04:46:06.988Z,1.3
2017-09-16T04:47:09.436Z,1.3
2017-09-16T04:48:11.912Z,1.3
2017-09-16T04:49:14.352Z,1.3
2017-09-16T04:50:16.803Z,1.3
2017-09-16T04:51:19.256Z,1.3
2017-09-16T04:52:22.048Z,1.3
2017-09-16T04:53:24.499Z,1.3
2017-09-16T04:54:26.948Z,1.3
2017-09-16T04:55:29.746Z,1.3
2017-09-16T04:56:32.869Z,1.3
2017-09-16T04:57:35.316Z,1.3
2017-09-16T04:58:37.752Z,1.3
2017-09-16T04:59:40.197Z,1.3
2017-09-16T05:00:42.645Z,1.3
2017-09-16T05:01:45.429Z,1.3
2017-09-16T05:02:47.872Z,1.3
2017-09-16T05:03:50.333Z,1.3
2017-09-16T05:04:52.778Z,1.3
2017-09-16T05:05:55.221Z,1.3
2017-09-16T05:06:57.665Z,1.3
2017-09-16T05:08:00.113Z,1.3
2017-09-16T05:09:02.576Z,1.3
2017-09-16T05:10:05.022Z,1.3
2017-09-16T05:11:07.458Z,1.3
2017-09-16T05:12:09.905Z,1.3
2017-09-16T05:13:12.348Z,1.3
2017-09-16T05:14:14.799Z,1.3
2017-09-16T05:15:17.258Z,1.3
2017-09-16T05:16:19.713Z,1.3
2017-09-16T05:17:22.151Z,1.3
2017-09-16T05:18:24.616Z,1.3
2017-09-16T05:19:27.065Z,1.3
2017-09-16T05:20:29.528Z,1.3
2017-09-16T05:21:31.970Z,1.3
2017-09-16T05:22:34.418Z,1.3
2017-09-16T05:23:36.869Z,1.3
2017-09-16T05:24:39.323Z,1.3
2017-09-16T05:25:41.772Z,1.3
2017-09-16T05:26:44.210Z,1.3
2017-09-16T05:27:46.675Z,1.3
2017-09-16T05:28:49.095Z,1.4
2017-09-16T05:29:51.556Z,1.4
2017-09-16T05:30:54.037Z,1.4
2017-09-16T05:31:56.487Z,1.3
2017-09-16T05:32:59.306Z,1.3
2017-09-16T05:34:01.747Z,1.3
2017-09-16T05:35:04.185Z,1.3
2017-09-16T05:36:06.963Z,1.4
2017-09-16T05:37:09.613Z,1.3
2017-09-16T05:38:12.060Z,1.4
2017-09-16T05:39:14.496Z,1.4
2017-09-16T05:40:16.945Z,1.3
2017-09-16T05:41:19.392Z,1.4
2017-09-16T05:42:21.864Z,1.3
2017-09-16T05:43:24.304Z,1.4
2017-09-16T05:44:26.749Z,1.4
2017-09-16T05:45:29.196Z,1.3
2017-09-16T05:46:31.645Z,1.3
2017-09-16T05:47:34.099Z,1.4
2017-09-16T05:48:36.644Z,1.4
2017-09-16T05:49:39.089Z,1.4
2017-09-16T05:50:41.536Z,1.4
2017-09-16T05:51:43.974Z,1.4
2017-09-16T05:52:46.417Z,1.4
2017-09-16T05:53:48.934Z,1.4
2017-09-16T05:54:51.372Z,1.4
2017-09-16T05:55:53.816Z,1.4
2017-09-16T05:56:56.264Z,1.3
2017-09-16T05:57:58.702Z,1.3
2017-09-16T05:59:01.229Z,1.4
2017-09-16T06:00:04.017Z,1.4
2017-09-16T06:01:06.453Z,1.4
2017-09-16T06:02:08.894Z,1.4
2017-09-16T06:03:11.340Z,1.4
2017-09-16T06:04:13.774Z,1.4
2017-09-16T06:05:16.220Z,1.4
2017-09-16T06:06:18.655Z,1.4
2017-09-16T06:07:21.091Z,1.4
2017-09-16T06:08:23.578Z,1.4
2017-09-16T06:09:26.040Z,1.4
2017-09-16T06:10:28.481Z,1.4
2017-09-16T06:11:30.929Z,1.4
2017-09-16T06:12:33.365Z,1.4
2017-09-16T06:13:35.815Z,1.4
2017-09-16T06:14:38.610Z,1.4
2017-09-16T06:15:41.391Z,1.4
2017-09-16T06:16:43.834Z,1.4
2017-09-16T06:17:46.273Z,1.4
2017-09-16T06:18:48.715Z,1.4
2017-09-16T06:19:51.161Z,1.4
2017-09-16T06:20:53.604Z,1.4
2017-09-16T06:21:56.037Z,1.4
2017-09-16T06:22:58.488Z,1.4
2017-09-16T06:24:00.938Z,1.4
2017-09-16T06:25:03.399Z,1.4
2017-09-16T06:26:05.838Z,1.4
2017-09-16T06:27:08.281Z,1.4
2017-09-16T06:28:10.725Z,1.4
2017-09-16T06:29:13.173Z,1.4
2017-09-16T06:30:15.614Z,1.4
2017-09-16T06:31:18.058Z,1.4
2017-09-16T06:32:20.787Z,1.4
2017-09-16T06:33:23.175Z,1.4
2017-09-16T06:34:25.567Z,1.4
2017-09-16T06:35:27.958Z,1.4
2017-09-16T06:36:30.354Z,1.4
2017-09-16T06:37:32.761Z,1.4
2017-09-16T06:38:35.149Z,1.4
2017-09-16T06:39:37.550Z,1.4
2017-09-16T06:40:40.299Z,1.4
2017-09-16T06:41:42.723Z,1.4
2017-09-16T06:42:45.090Z,1.4
2017-09-16T06:43:47.502Z,1.4
2017-09-16T06:44:49.897Z,1.4
2017-09-16T06:45:52.305Z,1.4
2017-09-16T06:46:54.685Z,1.4
2017-09-16T06:47:57.073Z,1.4
2017-09-16T06:48:59.485Z,1.4
2017-09-16T06:50:02.560Z,1.4
2017-09-16T06:51:04.966Z,1.4
2017-09-16T06:52:07.369Z,1.4
2017-09-16T06:53:09.765Z,1.4
2017-09-16T06:54:12.182Z,1.4
2017-09-16T06:55:14.590Z,1.4
2017-09-16T06:56:16.991Z,1.4
2017-09-16T06:57:19.414Z,1.4
2017-09-16T06:58:21.814Z,1.4
2017-09-16T06:59:24.216Z,1.5
2017-09-16T07:00:26.666Z,1.5
2017-09-16T07:01:29.065Z,1.4
2017-09-16T07:02:31.478Z,1.5
2017-09-16T07:03:34.203Z,1.5
2017-09-16T07:04:36.608Z,1.5
2017-09-16T07:05:39.002Z,1.4
2017-09-16T07:06:41.397Z,1.5
2017-09-16T07:07:43.804Z,1.5
2017-09-16T07:08:46.200Z,1.5
2017-09-16T07:09:48.595Z,1.4
2017-09-16T07:10:50.991Z,1.5
2017-09-16T07:11:53.402Z,1.6
2017-09-16T07:12:55.796Z,1.5
2017-09-16T07:13:58.538Z,1.5
2017-09-16T07:15:00.949Z,1.5
2017-09-16T07:16:03.340Z,1.5
2017-09-16T07:17:05.738Z,1.5
2017-09-16T07:18:08.140Z,1.5
2017-09-16T07:19:10.875Z,1.5
2017-09-16T07:20:13.281Z,1.5
2017-09-16T07:21:15.684Z,1.5
2017-09-16T07:22:18.423Z,1.5
2017-09-16T07:23:20.814Z,1.5
2017-09-16T07:24:23.205Z,1.5
2017-09-16T07:25:25.600Z,1.5
2017-09-16T07:26:27.995Z,1.5
2017-09-16T07:27:30.725Z,1.5
2017-09-16T07:28:33.114Z,1.5
2017-09-16T07:29:35.514Z,1.5
2017-09-16T07:30:37.920Z,1.5
2017-09-16T07:31:40.307Z,1.5
2017-09-16T07:32:42.695Z,1.5
2017-09-16T07:33:45.426Z,1.5
2017-09-16T07:34:47.822Z,1.6
2017-09-16T07:35:50.210Z,1.5
2017-09-16T07:36:52.948Z,1.5
2017-09-16T07:37:55.671Z,1.5
2017-09-16T07:38:58.062Z,1.5
2017-09-16T07:40:00.458Z,1.5
2017-09-16T07:41:02.851Z,1.5
2017-09-16T07:42:05.243Z,1.5
2017-09-16T07:43:07.631Z,1.6
2017-09-16T07:44:10.018Z,1.6
2017-09-16T07:45:12.417Z,1.6
2017-09-16T07:46:14.807Z,1.6
2017-09-16T07:47:17.198Z,1.5
2017-09-16T07:48:19.593Z,1.5
2017-09-16T07:49:22.188Z,1.5
2017-09-16T07:50:24.578Z,1.6
2017-09-16T07:51:26.976Z,1.5
2017-09-16T07:52:29.357Z,1.5
2017-09-16T07:53:31.753Z,1.5
2017-09-16T07:54:34.152Z,1.5
2017-09-16T07:55:36.547Z,1.5
2017-09-16T07:56:38.943Z,1.5
2017-09-16T07:57:41.338Z,1.6
2017-09-16T07:58:43.737Z,1.6
2017-09-16T07:59:46.129Z,1.7
2017-09-16T08:00:48.522Z,1.5
2017-09-16T08:01:50.917Z,1.5
2017-09-16T08:02:53.312Z,1.6
2017-09-16T08:03:55.701Z,1.6
2017-09-16T08:04:58.089Z,1.5
2017-09-16T08:06:00.483Z,1.5
2017-09-16T08:07:03.221Z,1.5
2017-09-16T08:08:05.609Z,1.6
2017-09-16T08:09:07.998Z,1.6
2017-09-16T08:10:10.397Z,1.6
2017-09-16T08:11:12.791Z,1.6
2017-09-16T08:12:15.195Z,1.6
2017-09-16T08:13:17.588Z,1.6
2017-09-16T08:14:19.981Z,1.6
2017-09-16T08:15:22.375Z,1.6
2017-09-16T08:16:24.771Z,1.6
2017-09-16T08:17:27.171Z,1.7
2017-09-16T08:18:30.251Z,1.7
2017-09-16T08:19:32.644Z,1.9
2017-09-16T08:20:35.411Z,1.7
2017-09-16T08:21:37.799Z,1.7
2017-09-16T08:22:40.196Z,1.8
2017-09-16T08:23:42.591Z,1.9
2017-09-16T08:24:44.984Z,1.9
2017-09-16T08:25:47.380Z,1.9
2017-09-16T08:26:49.777Z,1.9
2017-09-16T08:27:52.164Z,1.9
2017-09-16T08:28:54.559Z,1.9
2017-09-16T08:29:56.956Z,1.8
2017-09-16T08:30:59.349Z,1.9
2017-09-16T08:32:01.748Z,1.9
2017-09-16T08:33:04.152Z,2
2017-09-16T08:34:06.539Z,1.9
2017-09-16T08:35:08.932Z,1.9
2017-09-16T08:36:11.330Z,1.9
2017-09-16T08:37:13.735Z,1.9
2017-09-16T08:38:16.136Z,1.9
2017-09-16T08:39:18.533Z,1.9
2017-09-16T08:40:20.936Z,2
2017-09-16T08:41:23.334Z,2.1
2017-09-16T08:42:25.737Z,2
2017-09-16T08:43:28.128Z,2.1
2017-09-16T08:44:30.880Z,2
2017-09-16T08:45:33.273Z,2
2017-09-16T08:46:35.670Z,2.1
2017-09-16T08:47:38.076Z,2.1
2017-09-16T08:48:40.830Z,2.1
2017-09-16T08:49:43.237Z,2.1
2017-09-16T08:50:45.641Z,2.1
2017-09-16T08:51:48.037Z,2.1
2017-09-16T08:52:50.446Z,2.1
2017-09-16T08:53:53.213Z,2.1
2017-09-16T08:54:55.608Z,2.1
2017-09-16T08:55:58.001Z,2.1
2017-09-16T08:57:00.405Z,2.1
2017-09-16T08:58:02.800Z,2.2
2017-09-16T08:59:05.203Z,2.1
2017-09-16T09:00:07.601Z,2.2
2017-09-16T09:01:09.999Z,2.2
2017-09-16T09:02:12.403Z,2.2
2017-09-16T09:03:14.806Z,2.2
2017-09-16T09:04:17.551Z,2.2
2017-09-16T09:05:19.955Z,2.2
2017-09-16T09:06:22.361Z,2.2
2017-09-16T09:07:24.765Z,2.2
2017-09-16T09:08:27.161Z,2.2
2017-09-16T09:09:29.569Z,2.2
2017-09-16T09:10:31.974Z,2.3
2017-09-16T09:11:34.383Z,2.3
2017-09-16T09:12:36.788Z,2.3
2017-09-16T09:13:39.192Z,2.2
2017-09-16T09:14:41.594Z,2.3
2017-09-16T09:15:43.996Z,2.3
2017-09-16T09:16:46.405Z,2.4
2017-09-16T09:17:48.801Z,2.4
2017-09-16T09:18:51.209Z,2.4
2017-09-16T09:19:53.615Z,2.4
2017-09-16T09:20:56.018Z,2.4
2017-09-16T09:21:58.422Z,2.4
2017-09-16T09:23:00.822Z,2.4
2017-09-16T09:24:03.222Z,2.5
2017-09-16T09:25:05.627Z,2.4
2017-09-16T09:26:08.033Z,2.4
2017-09-16T09:27:10.431Z,2.4
2017-09-16T09:28:12.837Z,2.5
2017-09-16T09:29:15.246Z,2.5
2017-09-16T09:30:17.990Z,2.5
2017-09-16T09:31:20.386Z,2.5
2017-09-16T09:32:22.800Z,2.6
2017-09-16T09:33:25.203Z,2.5
2017-09-16T09:34:27.600Z,2.5
2017-09-16T09:35:30.004Z,2.5
2017-09-16T09:36:32.407Z,2.5
2017-09-16T09:37:34.807Z,2.4
2017-09-16T09:38:37.559Z,2.5
2017-09-16T09:39:40.289Z,2.3
2017-09-16T09:40:42.690Z,2.4
2017-09-16T09:41:45.102Z,2.5
2017-09-16T09:42:47.495Z,2.5
2017-09-16T09:43:49.912Z,2.4
2017-09-16T09:44:52.315Z,2.4
2017-09-16T09:45:54.718Z,2.5
2017-09-16T09:46:57.124Z,2.4
2017-09-16T09:47:59.529Z,2.5
2017-09-16T09:49:01.929Z,2.4
2017-09-16T09:50:04.681Z,2.4
2017-09-16T09:51:07.080Z,2.4
2017-09-16T09:52:09.485Z,2.4
2017-09-16T09:53:11.895Z,2.4
2017-09-16T09:54:14.315Z,2.3
2017-09-16T09:55:16.715Z,2.4
2017-09-16T09:56:19.135Z,2.3
2017-09-16T09:57:21.549Z,2.4
2017-09-16T09:58:23.956Z,2.4
2017-09-16T09:59:26.700Z,2.4
2017-09-16T10:00:29.101Z,2.4
2017-09-16T10:01:31.513Z,2.4
2017-09-16T10:02:33.922Z,2.4
2017-09-16T10:03:36.335Z,2.4
2017-09-16T10:04:38.751Z,2.4
2017-09-16T10:05:41.148Z,2.4
2017-09-16T10:06:43.544Z,2.4
2017-09-16T10:07:45.950Z,2.3
2017-09-16T10:08:48.687Z,2.4
2017-09-16T10:09:51.083Z,2.4
2017-09-16T10:10:53.852Z,2.4
2017-09-16T10:11:56.256Z,2.3
2017-09-16T10:12:58.680Z,2.3
2017-09-16T10:14:01.085Z,2.3
2017-09-16T10:15:03.484Z,2.3
2017-09-16T10:16:05.887Z,2.4
2017-09-16T10:17:08.301Z,2.3
2017-09-16T10:18:11.058Z,2.3
2017-09-16T10:19:13.462Z,2.3
2017-09-16T10:20:15.862Z,2.4
2017-09-16T10:21:18.262Z,2.4
2017-09-16T10:22:20.669Z,2.3
2017-09-16T10:23:23.080Z,2.3
2017-09-16T10:24:25.485Z,2.4
2017-09-16T10:25:28.223Z,2.4
2017-09-16T10:26:30.623Z,2.4
2017-09-16T10:27:33.368Z,2.4
2017-09-16T10:28:36.457Z,2.5
2017-09-16T10:29:38.885Z,2.5
2017-09-16T10:30:41.653Z,2.4
2017-09-16T10:31:44.394Z,2.5
2017-09-16T10:32:46.795Z,2.4
2017-09-16T10:33:49.200Z,2.4
2017-09-16T10:34:51.594Z,2.5
2017-09-16T10:35:54.000Z,2.5
2017-09-16T10:36:56.408Z,2.5
2017-09-16T10:37:59.146Z,2.6
2017-09-16T10:39:01.550Z,2.6
2017-09-16T10:40:03.957Z,2.6
2017-09-16T10:41:06.348Z,2.6
2017-09-16T10:42:08.761Z,2.7
2017-09-16T10:43:11.161Z,2.7
2017-09-16T10:44:13.604Z,2.7
2017-09-16T10:45:16.357Z,2.8
2017-09-16T10:46:19.147Z,2.8
2017-09-16T10:47:21.574Z,2.9
2017-09-16T10:48:23.996Z,2.9
2017-09-16T10:49:26.411Z,2.9
2017-09-16T10:50:28.831Z,3
2017-09-16T10:51:31.233Z,3.1
2017-09-16T10:52:33.637Z,3
2017-09-16T10:53:36.050Z,3
2017-09-16T10:54:38.452Z,3.1
2017-09-16T10:55:40.848Z,2.9
2017-09-16T10:56:43.257Z,3
2017-09-16T10:57:45.665Z,3
2017-09-16T10:58:48.079Z,3
2017-09-16T10:59:50.823Z,3
2017-09-16T11:00:53.239Z,2.8
2017-09-16T11:01:55.642Z,2.9
2017-09-16T11:02:58.060Z,2.9
2017-09-16T11:04:00.470Z,2.9
2017-09-16T11:05:02.871Z,2.9
2017-09-16T11:06:05.273Z,2.9
2017-09-16T11:07:08.022Z,2.9
2017-09-16T11:08:10.448Z,2.9
2017-09-16T11:09:12.849Z,2.9
2017-09-16T11:10:15.246Z,2.9
2017-09-16T11:11:17.678Z,3
2017-09-16T11:12:20.426Z,2.9
2017-09-16T11:13:22.843Z,2.9
2017-09-16T11:14:25.245Z,2.9
2017-09-16T11:15:27.996Z,2.9
2017-09-16T11:16:30.400Z,3
2017-09-16T11:17:32.810Z,3
2017-09-16T11:18:35.219Z,3
2017-09-16T11:19:37.968Z,3
2017-09-16T11:20:40.374Z,3
2017-09-16T11:21:43.133Z,3
2017-09-16T11:22:45.553Z,3
2017-09-16T11:23:47.962Z,2.9
2017-09-16T11:24:50.396Z,3.1
2017-09-16T11:25:52.806Z,3.1
2017-09-16T11:26:55.262Z,3.1
2017-09-16T11:27:57.679Z,3.2
2017-09-16T11:29:00.096Z,3.1
2017-09-16T11:30:02.497Z,3
2017-09-16T11:31:04.891Z,3
2017-09-16T11:32:07.301Z,2.9
2017-09-16T11:33:10.048Z,3
2017-09-16T11:34:12.455Z,2.9
2017-09-16T11:35:14.883Z,3
2017-09-16T11:36:17.286Z,3
2017-09-16T11:37:20.024Z,3
2017-09-16T11:38:22.458Z,3.1
2017-09-16T11:39:24.859Z,3.2
2017-09-16T11:40:27.308Z,3.1
2017-09-16T11:41:29.751Z,3.1
2017-09-16T11:42:32.158Z,3.1
2017-09-16T11:43:34.584Z,3.2
2017-09-16T11:44:36.991Z,3.1
2017-09-16T11:45:39.387Z,3.1
2017-09-16T11:46:41.843Z,3.1
2017-09-16T11:47:44.247Z,3.2
2017-09-16T11:48:46.664Z,3.2
2017-09-16T11:49:49.070Z,3.2
2017-09-16T11:50:51.472Z,3.1
2017-09-16T11:51:53.887Z,3.1
2017-09-16T11:52:56.298Z,3.2
2017-09-16T11:53:59.077Z,3.2
2017-09-16T11:55:01.481Z,3.2
2017-09-16T11:56:03.885Z,3.2
2017-09-16T11:57:06.633Z,3.2
2017-09-16T11:58:09.033Z,3.2
2017-09-16T11:59:11.438Z,3.1
2017-09-16T12:00:13.840Z,3.2
2017-09-16T12:01:16.248Z,3.1
2017-09-16T12:02:18.999Z,3.1
2017-09-16T12:03:21.737Z,3.2
2017-09-16T12:04:24.143Z,3.1
2017-09-16T12:05:26.551Z,3.1
2017-09-16T12:06:28.955Z,3.1
2017-09-16T12:07:31.360Z,3.2
2017-09-16T12:08:33.768Z,3.1
2017-09-16T12:09:36.169Z,3
2017-09-16T12:10:38.576Z,3
2017-09-16T12:11:40.980Z,3
2017-09-16T12:12:43.386Z,3
2017-09-16T12:13:46.147Z,3.1
2017-09-16T12:14:48.548Z,2.9
2017-09-16T12:15:50.947Z,3
2017-09-16T12:16:53.569Z,3
2017-09-16T12:17:55.975Z,2.9
2017-09-16T12:18:58.378Z,2.9
2017-09-16T12:20:00.792Z,2.9
2017-09-16T12:21:03.193Z,2.9
2017-09-16T12:22:05.600Z,2.8
2017-09-16T12:23:08.008Z,2.9
2017-09-16T12:24:10.411Z,2.9
2017-09-16T12:25:12.810Z,3
2017-09-16T12:26:15.222Z,3
2017-09-16T12:27:17.625Z,3.1
2017-09-16T12:28:20.029Z,3
2017-09-16T12:29:22.451Z,3.1
2017-09-16T12:30:25.061Z,2.9
2017-09-16T12:32:18.838Z,3
2017-09-16T12:33:21.298Z,3
2017-09-16T12:34:23.753Z,3
2017-09-16T12:35:26.208Z,3
2017-09-16T12:36:28.677Z,3
2017-09-16T12:37:31.330Z,3
2017-09-16T12:38:33.789Z,3
2017-09-16T12:39:36.246Z,3.1
2017-09-16T12:40:38.702Z,3
2017-09-16T12:41:41.165Z,3.2
2017-09-16T12:42:43.965Z,3.1
2017-09-16T12:43:46.425Z,3.1
2017-09-16T12:44:48.886Z,3.2
2017-09-16T12:45:51.347Z,3.2
2017-09-16T12:46:53.815Z,3.1
2017-09-16T12:47:56.629Z,3.2
2017-09-16T12:48:59.093Z,3.2
2017-09-16T12:50:01.550Z,3.2
2017-09-16T12:51:04.010Z,3.3
2017-09-16T12:52:06.470Z,3.3
2017-09-16T12:53:08.931Z,3.4
2017-09-16T12:54:11.389Z,3.4
2017-09-16T12:55:13.854Z,3.4
2017-09-16T12:56:16.308Z,3.4
2017-09-16T12:57:18.769Z,3.4
2017-09-16T12:58:21.230Z,3.4
2017-09-16T12:59:23.698Z,3.4
2017-09-16T13:00:26.182Z,3.4
2017-09-16T13:01:28.645Z,3.5
2017-09-16T13:02:31.464Z,3.5
2017-09-16T13:03:33.926Z,3.5
2017-09-16T13:04:36.386Z,3.6
2017-09-16T13:05:38.849Z,3.5
2017-09-16T13:06:41.310Z,3.5
2017-09-16T13:07:43.773Z,3.6
2017-09-16T13:08:46.240Z,3.6
2017-09-16T13:09:48.695Z,3.7
2017-09-16T13:10:51.166Z,3.7
2017-09-16T13:11:53.621Z,3.6
2017-09-16T13:12:56.435Z,3.6
2017-09-16T13:13:58.897Z,3.6
2017-09-16T13:15:01.363Z,3.6
2017-09-16T13:16:03.825Z,3.6
2017-09-16T13:17:06.289Z,3.7
2017-09-16T13:18:08.752Z,3.6
2017-09-16T13:19:11.222Z,3.7
2017-09-16T13:20:13.684Z,3.6
2017-09-16T13:21:16.147Z,3.6
2017-09-16T13:22:18.609Z,3.6
2017-09-16T13:23:21.076Z,3.5
2017-09-16T13:24:23.537Z,3.5
2017-09-16T13:25:26.002Z,3.5
2017-09-16T13:26:28.807Z,3.5
2017-09-16T13:27:31.616Z,3.4
2017-09-16T13:28:34.072Z,3.5
2017-09-16T13:29:36.533Z,3.4
2017-09-16T13:30:38.998Z,3.4
2017-09-16T13:31:41.458Z,3.5
2017-09-16T13:32:44.273Z,3.4
2017-09-16T13:33:46.732Z,3.3
2017-09-16T13:34:49.188Z,3.4
2017-09-16T13:35:51.656Z,3.4
2017-09-16T13:36:54.113Z,3.4
2017-09-16T13:37:56.573Z,3.3
2017-09-16T13:38:59.032Z,3.2
2017-09-16T13:40:01.494Z,3.2
2017-09-16T13:41:03.953Z,3.2
2017-09-16T13:42:06.418Z,3.3
2017-09-16T13:43:08.880Z,3.2
2017-09-16T13:44:11.335Z,3.2
2017-09-16T13:45:14.148Z,3.2
2017-09-16T13:46:16.951Z,3.2
2017-09-16T13:47:19.405Z,3.2
2017-09-16T13:48:22.212Z,3.1
2017-09-16T13:49:24.671Z,3.2
2017-09-16T13:50:27.134Z,3.1
2017-09-16T13:51:29.601Z,3.1
2017-09-16T13:52:32.396Z,3.1
2017-09-16T13:53:34.856Z,3
2017-09-16T13:54:37.321Z,3
2017-09-16T13:55:39.775Z,3.1
2017-09-16T13:56:42.234Z,3
2017-09-16T13:57:44.691Z,3
2017-09-16T13:58:47.150Z,3
2017-09-16T13:59:49.609Z,3
2017-09-16T14:00:52.072Z,3
2017-09-16T14:01:54.876Z,3
2017-09-16T14:02:57.339Z,3
2017-09-16T14:03:59.799Z,3
2017-09-16T14:05:02.610Z,2.9
2017-09-16T14:06:05.408Z,2.9
2017-09-16T14:07:07.872Z,2.9
2017-09-16T14:08:10.669Z,2.9
2017-09-16T14:09:13.126Z,2.8
2017-09-16T14:10:15.579Z,2.8
2017-09-16T14:11:18.385Z,2.9
2017-09-16T14:12:20.838Z,2.8
2017-09-16T14:13:23.293Z,2.8
2017-09-16T14:14:25.751Z,2.8
2017-09-16T14:15:28.209Z,2.8
2017-09-16T14:16:30.665Z,2.7
2017-09-16T14:17:33.132Z,2.9
2017-09-16T14:18:35.582Z,2.8
2017-09-16T14:19:38.046Z,2.8
2017-09-16T14:20:40.510Z,2.8
2017-09-16T14:21:43.164Z,2.7
2017-09-16T14:22:45.572Z,2.7
2017-09-16T14:23:47.988Z,2.7
2017-09-16T14:24:50.734Z,2.7